createdAt,value
2023-01-06T00:01:34.524Z,9.81
2023-01-06T00:04:02.996Z,9.83
2023-01-06T00:06:31.124Z,9.89
2023-01-06T00:09:02.401Z,9.88
2023-01-06T00:11:28.952Z,9.87
2023-01-06T00:13:56.396Z,9.90
2023-01-06T00:16:23.901Z,9.91
2023-01-06T00:18:56.194Z,9.90
2023-01-06T00:21:23.511Z,9.87
2023-01-06T00:23:50.403Z,9.89
2023-01-06T00:26:16.968Z,9.85
2023-01-06T00:28:43.787Z,9.91
2023-01-06T00:31:14.311Z,9.86
2023-01-06T00:33:42.523Z,9.86
2023-01-06T00:36:12.167Z,9.83
2023-01-06T00:38:39.616Z,9.90
2023-01-06T00:41:31.260Z,9.89
2023-01-06T00:43:59.495Z,9.90
2023-01-06T00:46:29.472Z,9.90
2023-01-06T00:49:06.188Z,9.94
2023-01-06T00:51:38.730Z,10.03
2023-01-06T00:54:07.299Z,9.94
2023-01-06T00:56:37.753Z,9.92
2023-01-06T00:59:05.621Z,9.92
2023-01-06T01:01:33.850Z,9.93
2023-01-06T01:04:00.654Z,9.97
2023-01-06T01:06:27.214Z,10.04
2023-01-06T01:08:59.842Z,10.03
2023-01-06T01:11:46.642Z,10.03
2023-01-06T01:14:16.222Z,10.02
2023-01-06T01:16:42.736Z,10.04
2023-01-06T01:19:10.397Z,10.06
2023-01-06T01:21:37.246Z,10.08
2023-01-06T01:24:04.342Z,10.07
2023-01-06T01:26:30.945Z,10.07
2023-01-06T01:28:57.446Z,10.06
2023-01-06T01:31:24.040Z,9.93
2023-01-06T01:33:50.587Z,9.98
2023-01-06T01:36:19.209Z,9.91
2023-01-06T01:38:45.835Z,9.90
2023-01-06T01:41:21.120Z,9.81
2023-01-06T01:43:51.503Z,9.88
2023-01-06T01:46:27.713Z,9.86
2023-01-06T01:49:01.901Z,9.76
2023-01-06T01:51:38.011Z,9.75
2023-01-06T01:54:11.618Z,9.81
2023-01-06T01:56:43.418Z,9.86
2023-01-06T01:59:17.382Z,9.85
2023-01-06T02:01:46.778Z,9.88
2023-01-06T02:04:15.851Z,9.85
2023-01-06T02:06:43.034Z,9.85
2023-01-06T02:09:25.439Z,9.79
2023-01-06T02:11:52.494Z,9.73
2023-01-06T02:14:22.680Z,9.73
2023-01-06T02:17:37.004Z,9.62
2023-01-06T02:20:41.442Z,9.50
2023-01-06T02:23:34.475Z,9.58
2023-01-06T02:26:34.364Z,9.64
2023-01-06T02:29:45.896Z,9.73
2023-01-06T02:32:32.621Z,9.57
2023-01-06T02:35:18.524Z,9.56
2023-01-06T02:38:06.546Z,9.59
2023-01-06T02:41:07.957Z,9.58
2023-01-06T02:44:01.045Z,9.57
2023-01-06T02:47:18.789Z,9.54
2023-01-06T02:50:00.384Z,9.54
2023-01-06T02:52:53.401Z,9.58
2023-01-06T02:55:40.242Z,9.61
2023-01-06T02:58:57.648Z,9.61
2023-01-06T03:01:34.924Z,9.61
2023-01-06T03:04:09.899Z,9.64
2023-01-06T03:06:44.676Z,9.71
2023-01-06T03:09:16.372Z,9.70
2023-01-06T03:11:48.775Z,9.61
2023-01-06T03:14:26.098Z,9.63
2023-01-06T03:16:53.837Z,9.65
2023-01-06T03:19:21.381Z,9.69
2023-01-06T03:21:51.469Z,9.66
2023-01-06T03:24:18.220Z,9.57
2023-01-06T03:26:48.323Z,9.57
2023-01-06T03:29:18.729Z,9.54
2023-01-06T03:32:03.167Z,9.48
2023-01-06T03:35:33.064Z,9.44
2023-01-06T03:38:24.051Z,9.32
2023-01-06T03:41:01.819Z,9.26
2023-01-06T03:43:44.285Z,9.19
2023-01-06T03:46:26.596Z,9.18
2023-01-06T03:49:07.250Z,9.18
2023-01-06T03:52:12.513Z,9.07
2023-01-06T03:55:00.816Z,9.05
2023-01-06T03:57:34.940Z,9.04
2023-01-06T04:00:12.484Z,9.04
2023-01-06T04:02:41.473Z,9.11
2023-01-06T04:05:23.309Z,9.05
2023-01-06T04:07:50.100Z,8.97
2023-01-06T04:10:19.192Z,9.00
2023-01-06T04:12:45.961Z,9.08
2023-01-06T04:15:20.584Z,8.89
2023-01-06T04:17:48.203Z,8.99
2023-01-06T04:20:19.352Z,9.04
2023-01-06T04:22:46.051Z,9.02
2023-01-06T04:25:12.964Z,9.08
2023-01-06T04:27:39.601Z,9.07
2023-01-06T04:30:07.212Z,9.14
2023-01-06T04:32:33.731Z,9.21
2023-01-06T04:35:00.274Z,9.27
2023-01-06T04:37:26.819Z,9.19
2023-01-06T04:39:53.269Z,9.18
2023-01-06T04:42:19.807Z,9.16
2023-01-06T04:44:46.244Z,9.23
2023-01-06T04:47:12.800Z,9.20
2023-01-06T04:49:39.307Z,9.19
2023-01-06T04:52:06.921Z,9.15
2023-01-06T04:54:33.380Z,9.12
2023-01-06T04:56:59.898Z,9.10
2023-01-06T04:59:26.617Z,9.01
2023-01-06T05:01:53.301Z,9.04
2023-01-06T05:04:20.341Z,9.07
2023-01-06T05:06:46.901Z,9.02
2023-01-06T05:09:13.397Z,8.97
2023-01-06T05:11:40.785Z,8.94
2023-01-06T05:14:07.255Z,9.00
2023-01-06T05:16:34.992Z,8.96
2023-01-06T05:19:01.779Z,8.98
2023-01-06T05:21:32.520Z,9.01
2023-01-06T05:23:59.638Z,9.04
2023-01-06T05:26:27.755Z,9.05
2023-01-06T05:28:55.280Z,9.00
2023-01-06T05:31:22.725Z,8.89
2023-01-06T05:33:49.257Z,8.84
2023-01-06T05:36:18.632Z,8.78
2023-01-06T05:38:50.667Z,8.80
2023-01-06T05:41:17.128Z,8.82
2023-01-06T05:43:43.688Z,8.85
2023-01-06T05:46:12.664Z,8.94
2023-01-06T05:48:40.214Z,8.99
2023-01-06T05:51:11.268Z,9.00
2023-01-06T05:53:41.306Z,8.97
2023-01-06T05:56:11.492Z,8.87
2023-01-06T05:58:41.997Z,8.86
2023-01-06T06:01:27.041Z,8.88
2023-01-06T06:03:54.751Z,8.87
2023-01-06T06:06:24.668Z,8.78
2023-01-06T06:08:51.781Z,8.76
2023-01-06T06:11:19.806Z,8.75
2023-01-06T06:13:52.026Z,8.74
2023-01-06T06:16:22.548Z,8.61
2023-01-06T06:18:55.158Z,8.63
2023-01-06T06:21:26.305Z,8.72
2023-01-06T06:23:54.601Z,8.77
2023-01-06T06:26:22.137Z,8.65
2023-01-06T06:28:48.690Z,8.73
2023-01-06T06:31:27.375Z,8.77
2023-01-06T06:33:58.330Z,8.71
2023-01-06T06:36:25.533Z,8.77
2023-01-06T06:38:54.686Z,8.71
2023-01-06T06:41:23.716Z,8.76
2023-01-06T06:43:51.479Z,8.87
2023-01-06T06:46:19.437Z,8.90
2023-01-06T06:48:46.017Z,8.81
2023-01-06T06:51:16.833Z,8.83
2023-01-06T06:53:44.084Z,8.83
2023-01-06T06:56:11.644Z,8.85
2023-01-06T06:58:38.944Z,8.86
2023-01-06T07:01:16.189Z,8.75
2023-01-06T07:03:43.218Z,8.72
2023-01-06T07:06:14.619Z,8.69
2023-01-06T07:08:46.176Z,8.69
2023-01-06T07:11:13.024Z,8.76
2023-01-06T07:13:39.759Z,8.71
2023-01-06T07:16:07.080Z,8.76
2023-01-06T07:18:33.771Z,8.76
2023-01-06T07:21:00.329Z,8.78
2023-01-06T07:23:26.882Z,8.71
2023-01-06T07:25:56.857Z,8.73
2023-01-06T07:28:24.352Z,8.75
2023-01-06T07:30:52.081Z,8.77
2023-01-06T07:33:20.072Z,8.72
2023-01-06T07:35:47.070Z,8.78
2023-01-06T07:38:13.723Z,8.84
2023-01-06T07:40:40.249Z,8.92
2023-01-06T07:43:09.219Z,8.92
2023-01-06T07:45:35.891Z,8.93
2023-01-06T07:48:02.891Z,8.84
2023-01-06T07:50:31.654Z,8.81
2023-01-06T07:53:03.031Z,8.74
2023-01-06T07:55:30.401Z,8.67
2023-01-06T07:57:58.623Z,8.69
2023-01-06T08:00:25.628Z,8.68
2023-01-06T08:02:52.163Z,8.75
2023-01-06T08:05:18.650Z,8.83
2023-01-06T08:07:45.108Z,8.83
2023-01-06T08:10:11.802Z,8.71
2023-01-06T08:12:38.317Z,8.82
2023-01-06T08:15:05.576Z,8.73
2023-01-06T08:17:32.207Z,8.80
2023-01-06T08:19:58.746Z,8.77
2023-01-06T08:22:25.281Z,8.81
2023-01-06T08:24:51.702Z,8.84
2023-01-06T08:27:20.396Z,8.87
2023-01-06T08:29:49.854Z,8.88
2023-01-06T08:32:16.310Z,8.87
2023-01-06T08:34:42.756Z,8.92
2023-01-06T08:37:09.301Z,8.90
2023-01-06T08:39:35.886Z,8.94
2023-01-06T08:42:02.390Z,8.96
2023-01-06T08:44:28.933Z,8.96
2023-01-06T08:46:55.420Z,8.94
2023-01-06T08:49:21.936Z,9.02
2023-01-06T08:51:48.463Z,9.01
2023-01-06T08:54:14.964Z,9.04
2023-01-06T08:56:43.508Z,9.12
2023-01-06T08:59:15.138Z,9.13
2023-01-06T09:01:42.908Z,9.12
2023-01-06T09:04:10.971Z,9.13
2023-01-06T09:06:39.679Z,9.21
2023-01-06T09:09:07.872Z,9.20
2023-01-06T09:11:34.665Z,9.20
2023-01-06T09:14:01.173Z,9.15
2023-01-06T09:16:27.711Z,9.21
2023-01-06T09:18:54.274Z,9.25
2023-01-06T09:21:23.441Z,9.31
2023-01-06T09:23:50.069Z,9.23
2023-01-06T09:26:18.415Z,9.25
2023-01-06T09:28:44.948Z,9.34
2023-01-06T09:31:12.193Z,9.37
2023-01-06T09:33:39.761Z,9.38
2023-01-06T09:36:07.356Z,9.45
2023-01-06T09:38:33.900Z,9.47
2023-01-06T09:41:18.561Z,9.38
2023-01-06T09:44:04.247Z,9.27
2023-01-06T09:46:37.604Z,9.32
2023-01-06T09:49:15.988Z,9.44
2023-01-06T09:51:43.945Z,9.45
2023-01-06T09:54:28.917Z,9.49
2023-01-06T09:57:05.741Z,9.42
2023-01-06T09:59:45.997Z,9.45
2023-01-06T10:02:26.112Z,9.44
2023-01-06T10:04:52.652Z,9.45
2023-01-06T10:07:45.873Z,9.52
2023-01-06T10:10:59.947Z,9.59
2023-01-06T10:13:47.680Z,9.57
2023-01-06T10:16:33.951Z,9.55
2023-01-06T10:19:19.335Z,9.51
2023-01-06T10:22:05.177Z,9.62
2023-01-06T10:24:45.035Z,9.61
2023-01-06T10:27:37.691Z,9.65
2023-01-06T10:30:19.280Z,9.72
2023-01-06T10:32:50.081Z,9.81
2023-01-06T10:35:20.577Z,9.88
2023-01-06T10:37:51.217Z,9.93
2023-01-06T10:40:25.340Z,9.96
2023-01-06T10:43:03.719Z,9.96
2023-01-06T10:45:50.249Z,9.94
2023-01-06T10:48:27.470Z,10.07
2023-01-06T10:50:56.923Z,10.15
2023-01-06T10:53:24.459Z,10.03
2023-01-06T10:56:00.265Z,10.04
2023-01-06T10:58:52.778Z,10.07
2023-01-06T11:01:28.962Z,10.05
2023-01-06T11:04:11.869Z,10.06
2023-01-06T11:07:01.569Z,10.06
2023-01-06T11:09:44.912Z,10.21
2023-01-06T11:12:28.824Z,10.25
2023-01-06T11:15:00.647Z,10.30
2023-01-06T11:17:29.353Z,10.37
2023-01-06T11:20:25.235Z,10.28
2023-01-06T11:22:51.758Z,10.36
2023-01-06T11:25:20.884Z,10.41
2023-01-06T11:28:17.876Z,10.39
2023-01-06T11:30:51.232Z,10.39
2023-01-06T11:33:24.959Z,10.53
2023-01-06T11:35:53.389Z,10.54
2023-01-06T11:38:22.155Z,10.58
2023-01-06T11:40:52.587Z,10.55
2023-01-06T11:43:30.493Z,10.54
2023-01-06T11:46:06.743Z,10.35
2023-01-06T11:48:40.063Z,10.35
2023-01-06T11:51:09.336Z,10.32
2023-01-06T11:53:39.306Z,10.33
2023-01-06T11:56:18.549Z,10.25
2023-01-06T11:58:56.969Z,10.20
2023-01-06T12:01:56.083Z,10.21
2023-01-06T12:04:51.894Z,10.23
2023-01-06T12:07:38.115Z,10.11
2023-01-06T12:10:38.734Z,10.12
2023-01-06T12:13:05.679Z,10.22
2023-01-06T12:15:36.694Z,10.18
2023-01-06T12:18:18.185Z,10.16
2023-01-06T12:20:51.354Z,10.25
2023-01-06T12:23:29.520Z,10.24
2023-01-06T12:26:08.712Z,10.33
2023-01-06T12:28:41.994Z,10.51
2023-01-06T12:31:27.536Z,10.65
2023-01-06T12:34:34.688Z,10.54
2023-01-06T12:37:35.509Z,10.46
2023-01-06T12:40:22.008Z,10.54
2023-01-06T12:43:12.175Z,10.54
2023-01-06T12:46:05.461Z,10.60
2023-01-06T12:48:54.659Z,10.65
2023-01-06T12:51:38.251Z,10.68
2023-01-06T12:54:32.337Z,10.73
2023-01-06T12:57:27.014Z,10.68
2023-01-06T13:00:11.600Z,10.76
2023-01-06T13:02:59.953Z,10.65
2023-01-06T13:05:47.251Z,10.72
2023-01-06T13:08:24.676Z,10.68
2023-01-06T13:11:17.424Z,10.59
2023-01-06T13:13:53.086Z,10.40
2023-01-06T13:16:43.011Z,10.34
2023-01-06T13:19:49.791Z,10.38
2023-01-06T13:22:28.814Z,10.39
2023-01-06T13:24:58.034Z,10.52
2023-01-06T13:27:46.054Z,10.52
2023-01-06T13:30:48.891Z,10.47
2023-01-06T13:33:42.057Z,10.44
2023-01-06T13:36:46.703Z,10.42
2023-01-06T13:39:22.505Z,10.50
2023-01-06T13:41:55.908Z,10.51
2023-01-06T13:44:28.806Z,10.56
2023-01-06T13:47:11.355Z,10.55
2023-01-06T13:49:39.874Z,10.62
2023-01-06T13:52:24.685Z,10.67
2023-01-06T13:54:51.126Z,10.69
2023-01-06T13:57:20.329Z,10.72
2023-01-06T14:00:03.074Z,10.64
2023-01-06T14:02:35.918Z,10.63
2023-01-06T14:05:03.053Z,10.54
2023-01-06T14:07:39.183Z,10.54
2023-01-06T14:10:33.420Z,10.53
2023-01-06T14:13:03.248Z,10.51
2023-01-06T14:15:33.467Z,10.52
2023-01-06T14:18:03.131Z,10.55
2023-01-06T14:20:38.385Z,10.51
2023-01-06T14:23:14.021Z,10.48
2023-01-06T14:25:43.229Z,10.43
2023-01-06T14:28:21.759Z,10.41
2023-01-06T14:30:50.358Z,10.41
2023-01-06T14:33:34.756Z,10.41
2023-01-06T14:36:15.518Z,10.38
2023-01-06T14:38:54.983Z,10.37
2023-01-06T14:41:34.829Z,10.39
2023-01-06T14:44:28.924Z,10.38
2023-01-06T14:47:04.211Z,10.45
2023-01-06T14:49:54.435Z,10.42
2023-01-06T14:52:38.349Z,10.35
2023-01-06T14:55:29.178Z,10.23
2023-01-06T14:57:56.181Z,10.29
2023-01-06T15:00:33.400Z,10.25
2023-01-06T15:03:03.928Z,10.19
2023-01-06T15:05:36.268Z,10.12
2023-01-06T15:08:04.347Z,10.06
2023-01-06T15:10:38.091Z,10.15
2023-01-06T15:13:30.569Z,10.17
2023-01-06T15:16:08.735Z,10.32
2023-01-06T15:18:41.656Z,10.31
2023-01-06T15:21:08.372Z,10.29
2023-01-06T15:23:34.963Z,10.21
2023-01-06T15:26:01.453Z,10.27
2023-01-06T15:28:32.076Z,10.24
2023-01-06T15:31:01.311Z,10.22
2023-01-06T15:33:39.221Z,10.16
2023-01-06T15:36:07.973Z,10.16
2023-01-06T15:38:38.962Z,10.11
2023-01-06T15:41:06.077Z,10.03
2023-01-06T15:43:45.140Z,9.98
2023-01-06T15:46:13.235Z,9.98
2023-01-06T15:48:49.002Z,10.04
2023-01-06T15:51:19.889Z,10.04
2023-01-06T15:53:53.946Z,10.08
2023-01-06T15:56:28.393Z,10.10
2023-01-06T15:58:58.795Z,10.04
2023-01-06T16:01:25.814Z,10.06
2023-01-06T16:03:57.225Z,9.96
2023-01-06T16:06:33.178Z,9.97
2023-01-06T16:09:30.371Z,9.94
2023-01-06T16:12:21.628Z,9.93
2023-01-06T16:14:49.413Z,10.00
2023-01-06T16:17:33.506Z,9.92
2023-01-06T16:20:20.764Z,9.93
2023-01-06T16:22:55.024Z,9.82
2023-01-06T16:25:21.426Z,9.83
2023-01-06T16:27:51.140Z,9.87
2023-01-06T16:30:36.296Z,9.82
2023-01-06T16:33:03.797Z,9.82
2023-01-06T16:35:33.788Z,9.83
2023-01-06T16:38:01.165Z,9.90
2023-01-06T16:40:30.090Z,9.86
2023-01-06T16:43:02.585Z,9.82
2023-01-06T16:45:42.661Z,9.81
2023-01-06T16:48:16.971Z,9.81
2023-01-06T16:50:53.183Z,9.77
2023-01-06T16:53:22.818Z,9.74
2023-01-06T16:55:54.127Z,9.72
2023-01-06T16:58:22.924Z,9.80
2023-01-06T17:00:54.200Z,9.85
2023-01-06T17:03:28.737Z,9.83
2023-01-06T17:05:56.400Z,9.84
2023-01-06T17:08:40.927Z,9.77
2023-01-06T17:11:16.684Z,9.79
2023-01-06T17:14:04.615Z,9.79
2023-01-06T17:16:35.937Z,9.78
2023-01-06T17:19:16.146Z,9.84
2023-01-06T17:21:42.749Z,9.82
2023-01-06T17:24:14.340Z,9.85
2023-01-06T17:26:50.003Z,9.86
2023-01-06T17:29:20.632Z,9.78
2023-01-06T17:31:52.668Z,9.80
2023-01-06T17:34:24.642Z,9.82
2023-01-06T17:36:56.093Z,9.81
2023-01-06T17:39:36.347Z,9.60
2023-01-06T17:42:11.985Z,9.54
2023-01-06T17:44:50.667Z,9.48
2023-01-06T17:47:17.042Z,9.47
2023-01-06T17:50:01.295Z,9.54
2023-01-06T17:52:40.227Z,9.61
2023-01-06T17:55:25.282Z,9.74
2023-01-06T17:57:56.343Z,9.82
2023-01-06T18:00:29.617Z,9.87
2023-01-06T18:03:02.536Z,9.83
2023-01-06T18:05:30.546Z,9.87
2023-01-06T18:08:05.190Z,9.83
2023-01-06T18:10:49.648Z,9.80
2023-01-06T18:13:42.420Z,9.85
2023-01-06T18:16:29.108Z,9.86
2023-01-06T18:19:24.240Z,9.82
2023-01-06T18:21:52.324Z,9.74
2023-01-06T18:24:37.064Z,9.72
2023-01-06T18:27:14.596Z,9.65
2023-01-06T18:29:44.211Z,9.70
2023-01-06T18:32:31.788Z,9.54
2023-01-06T18:35:09.249Z,9.53
2023-01-06T18:37:36.477Z,9.64
2023-01-06T18:40:11.011Z,9.68
2023-01-06T18:42:44.385Z,9.62
2023-01-06T18:45:25.593Z,9.62
2023-01-06T18:48:00.577Z,9.61
2023-01-06T18:50:37.178Z,9.74
2023-01-06T18:53:23.067Z,9.45
2023-01-06T18:55:53.878Z,9.63
2023-01-06T18:58:47.321Z,9.68
2023-01-06T19:01:37.336Z,9.65
2023-01-06T19:04:28.676Z,9.66
2023-01-06T19:07:20.169Z,9.59
2023-01-06T19:09:49.196Z,9.64
2023-01-06T19:12:39.058Z,9.59
2023-01-06T19:15:22.268Z,9.56
2023-01-06T19:17:50.240Z,9.58
2023-01-06T19:20:28.598Z,9.52
2023-01-06T19:22:56.904Z,9.61
2023-01-06T19:25:40.252Z,9.55
2023-01-06T19:28:23.184Z,9.47
2023-01-06T19:31:05.024Z,9.46
2023-01-06T19:33:56.556Z,9.45
2023-01-06T19:36:39.925Z,9.42
2023-01-06T19:39:37.041Z,9.38
2023-01-06T19:42:09.534Z,9.28
2023-01-06T19:44:38.439Z,9.30
2023-01-06T19:47:23.562Z,9.38
2023-01-06T19:49:55.728Z,9.46
2023-01-06T19:52:34.046Z,9.40
2023-01-06T19:55:29.482Z,9.43
2023-01-06T19:58:00.072Z,9.50
2023-01-06T20:00:30.064Z,9.53
2023-01-06T20:03:01.901Z,9.55
2023-01-06T20:05:30.032Z,9.53
2023-01-06T20:07:56.506Z,9.43
2023-01-06T20:10:23.106Z,9.41
2023-01-06T20:12:49.866Z,9.47
2023-01-06T20:15:16.919Z,9.42
2023-01-06T20:17:43.532Z,9.38
2023-01-06T20:20:13.929Z,9.43
2023-01-06T20:22:40.440Z,9.38
2023-01-06T20:25:07.629Z,9.35
2023-01-06T20:27:35.139Z,9.34
2023-01-06T20:30:01.750Z,9.36
2023-01-06T20:32:28.483Z,9.42
2023-01-06T20:34:54.981Z,9.45
2023-01-06T20:37:21.486Z,9.52
2023-01-06T20:39:48.042Z,9.51
2023-01-06T20:42:14.501Z,9.48
2023-01-06T20:44:41.242Z,9.50
2023-01-06T20:47:08.178Z,9.55
2023-01-06T20:49:34.935Z,9.61
2023-01-06T20:52:01.442Z,9.49
2023-01-06T20:54:27.953Z,9.46
2023-01-06T20:56:54.402Z,9.46
2023-01-06T20:59:22.155Z,9.44
2023-01-06T21:01:48.753Z,9.44
2023-01-06T21:04:15.407Z,9.47
2023-01-06T21:06:42.002Z,9.45
2023-01-06T21:09:08.553Z,9.48
2023-01-06T21:11:35.061Z,9.41
2023-01-06T21:14:01.579Z,9.42
2023-01-06T21:16:28.132Z,9.40
2023-01-06T21:18:54.723Z,9.32
2023-01-06T21:21:21.327Z,9.30
2023-01-06T21:23:47.787Z,9.23
2023-01-06T21:26:14.236Z,9.18
2023-01-06T21:28:40.733Z,9.16
2023-01-06T21:31:07.306Z,9.12
2023-01-06T21:33:33.817Z,9.12
2023-01-06T21:36:00.324Z,9.12
2023-01-06T21:38:26.816Z,9.18
2023-01-06T21:40:54.772Z,9.18
2023-01-06T21:43:21.214Z,9.27
2023-01-06T21:45:47.949Z,9.26
2023-01-06T21:48:14.923Z,9.30
2023-01-06T21:50:44.639Z,9.30
2023-01-06T21:53:12.805Z,9.30
2023-01-06T21:55:40.936Z,9.33
2023-01-06T21:58:07.515Z,9.34
2023-01-06T22:00:34.045Z,9.37
2023-01-06T22:03:00.737Z,9.38
2023-01-06T22:05:27.281Z,9.42
2023-01-06T22:07:54.046Z,9.40
2023-01-06T22:10:24.323Z,9.38
2023-01-06T22:12:55.484Z,9.41
2023-01-06T22:15:22.705Z,9.42
2023-01-06T22:17:50.286Z,9.47
2023-01-06T22:20:17.830Z,9.51
2023-01-06T22:22:45.520Z,9.52
2023-01-06T22:25:12.228Z,9.48
2023-01-06T22:27:38.727Z,9.48
2023-01-06T22:30:05.975Z,9.46
2023-01-06T22:32:32.600Z,9.39
2023-01-06T22:34:59.127Z,9.31
2023-01-06T22:37:25.552Z,9.36
2023-01-06T22:39:52.105Z,9.37
2023-01-06T22:42:18.634Z,9.35
2023-01-06T22:44:45.164Z,9.35
2023-01-06T22:47:11.674Z,9.39
2023-01-06T22:49:38.096Z,9.49
2023-01-06T22:52:05.339Z,9.47
2023-01-06T22:54:31.871Z,9.47
2023-01-06T22:56:58.425Z,9.45
2023-01-06T22:59:24.904Z,9.46
2023-01-06T23:01:51.537Z,9.54
2023-01-06T23:04:18.168Z,9.57
2023-01-06T23:06:45.039Z,9.56
2023-01-06T23:09:11.509Z,9.58
2023-01-06T23:11:41.500Z,9.57
2023-01-06T23:14:11.184Z,9.58
2023-01-06T23:16:40.810Z,9.51
2023-01-06T23:19:11.132Z,9.45
2023-01-06T23:21:37.664Z,9.40
2023-01-06T23:24:04.884Z,9.47
2023-01-06T23:26:41.231Z,9.39
2023-01-06T23:29:07.920Z,9.30
2023-01-06T23:31:39.976Z,9.28
2023-01-06T23:34:11.310Z,9.35
2023-01-06T23:36:39.188Z,9.41
2023-01-06T23:39:10.942Z,9.40
2023-01-06T23:41:38.053Z,9.38
2023-01-06T23:44:05.784Z,9.37
2023-01-06T23:46:39.298Z,9.39
2023-01-06T23:49:07.499Z,9.43
2023-01-06T23:51:34.333Z,9.47
2023-01-06T23:54:03.015Z,9.45
2023-01-06T23:56:32.667Z,9.49
2023-01-06T23:59:02.620Z,9.48
